aviador You're here:

GMMC Decoded Metar

CASABLANCA in MOROCCO
Report Time2017-08-17 13:00:00
UTC Time2017-08-17 13:26:10
Flight Rules vfr VFR
Wind340° at 06 kt
W.Rank340° ranks 4
Current wind is below 340° avg. (7.6)
Visibility9999 m
Phenomena:N/A
Clouds:N/A
Expected CloudBase > 2,400 ft AGL from Temp-Dew spread
CeilingNone
Temp27°C (ISA +12)
Dew Point21°C (70% RH)
Heat Index28.9°C
QNH1016 hPa
Density Alt1,860 ft
Elevation203 ft
Report Wrong Elevation
Raw Report
GMMC 171300Z 34006KT CAVOK 27/21 Q1016=

Extra information for GMMC:More info

Metar Taf Metar & Taf Last 4 Metars F.Rules Stats Wind Profile Meteogram Temp Stats Airport Information Weather charts Add Link Nearby VenuesMetar ALERT Operation Metar Decoded Social comments